Time;durP1;ratioP1;P1;durP2;ratioP2;P2;SDS_P1;SDS_P2;PMS_P1;PMS_P2;Temp;Humidity;BMP_temperature;BMP_pressure;BME280_temperature;BME280_humidity;BME280_pressure;Samples;Min_cycle;Max_cycle;Signal;HPM_P1;HPM_P2
2022/01/16 00:00:27;;;;;;;27.97;14.87;;;;;;;2.71;88.39;100394.84;5068154;28;20695;-65
2022/01/16 00:05:39;;;;;;;16.77;10.83;;;;;;;2.71;89.56;100407.50;5057361;28;20235;-66
2022/01/16 00:08:05;;;;;;;16.10;12.03;;;;;;;2.52;89.93;100386.06;5062598;28;20754;-65
2022/01/16 00:10:34;;;;;;;8.63;7.83;;;;;;;2.56;89.58;100387.81;5064307;28;20273;-66
2022/01/16 00:13:00;;;;;;;9.07;7.43;;;;;;;2.46;89.75;100388.47;5072445;28;20200;-65
2022/01/16 00:15:27;;;;;;;8.30;7.60;;;;;;;2.42;89.85;100380.81;5068524;28;20196;-66
2022/01/16 00:17:59;;;;;;;8.70;7.90;;;;;;;2.42;90.62;100396.00;5063326;28;20254;-66
2022/01/16 00:20:27;;;;;;;10.10;6.93;;;;;;;2.35;90.91;100411.91;5068876;28;20202;-65
2022/01/16 00:22:54;;;;;;;11.80;7.93;;;;;;;2.33;91.57;100432.09;5066407;28;20208;-66
2022/01/16 00:25:21;;;;;;;9.10;8.17;;;;;;;2.29;91.89;100458.19;5069258;28;20200;-66
2022/01/16 00:27:49;;;;;;;9.27;6.77;;;;;;;2.27;91.67;100484.25;5056029;28;20259;-66
2022/01/16 00:30:18;;;;;;;13.20;8.53;;;;;;;2.33;91.41;100509.66;5072948;28;20686;-66
2022/01/16 00:32:45;;;;;;;18.00;11.93;;;;;;;2.39;90.60;100546.06;5068331;28;20201;-66
2022/01/16 00:35:13;;;;;;;24.43;12.40;;;;;;;2.43;90.85;100560.50;5057104;28;20204;-65
2022/01/16 00:37:40;;;;;;;19.87;12.37;;;;;;;2.39;90.35;100512.34;5054880;28;20652;-65
2022/01/16 00:40:10;;;;;;;27.57;13.97;;;;;;;2.51;89.87;100483.09;5068313;28;20192;-65
2022/01/16 00:42:37;;;;;;;26.57;15.63;;;;;;;2.46;89.86;100415.47;5061537;28;20618;-66
2022/01/16 00:45:06;;;;;;;10.50;8.63;;;;;;;2.53;90.17;100370.06;5064995;28;20341;-66
2022/01/16 00:47:33;;;;;;;8.27;6.93;;;;;;;2.47;90.19;100295.72;5059493;28;20215;-66
2022/01/16 00:50:00;;;;;;;9.33;7.43;;;;;;;2.34;90.76;100274.41;5072624;28;20733;-66
2022/01/16 00:52:26;;;;;;;9.33;8.17;;;;;;;2.31;91.13;100279.44;5066388;28;20707;-66
2022/01/16 00:54:54;;;;;;;10.10;8.20;;;;;;;2.27;91.06;100297.03;5072202;28;20626;-66
2022/01/16 00:57:21;;;;;;;6.80;6.13;;;;;;;2.17;91.34;100300.22;5072074;28;20220;-66
2022/01/16 00:59:48;;;;;;;11.00;7.00;;;;;;;2.16;91.15;100309.53;5066277;28;20208;-66
2022/01/16 01:02:17;;;;;;;8.40;7.20;;;;;;;2.14;90.90;100346.56;5061910;28;20291;-66
2022/01/16 01:04:46;;;;;;;7.60;6.50;;;;;;;2.11;91.40;100379.38;5072104;28;20206;-66
2022/01/16 01:07:13;;;;;;;10.13;7.87;;;;;;;2.09;91.30;100413.91;5071901;28;20223;-66
2022/01/16 01:09:40;;;;;;;8.03;7.43;;;;;;;2.05;91.58;100430.72;5061928;28;20627;-66
2022/01/16 01:12:09;;;;;;;9.00;7.57;;;;;;;2.00;91.14;100406.97;5054673;28;20197;-67
2022/01/16 01:14:42;;;;;;;7.67;6.83;;;;;;;1.98;91.11;100406.13;5066247;28;20199;-66
2022/01/16 01:17:13;;;;;;;9.50;8.13;;;;;;;1.93;91.33;100420.34;5071844;28;20188;-67
2022/01/16 01:19:41;;;;;;;8.47;7.40;;;;;;;1.93;91.10;100416.97;5063402;28;20227;-66
2022/01/16 01:22:08;;;;;;;11.33;8.13;;;;;;;1.94;90.56;100404.34;5066546;28;20196;-66
2022/01/16 01:24:36;;;;;;;8.23;7.00;;;;;;;1.94;90.02;100399.28;5063013;28;20270;-66
2022/01/16 01:27:12;;;;;;;7.63;7.03;;;;;;;1.96;89.99;100407.78;5044080;28;20689;-66
2022/01/16 01:29:41;;;;;;;8.23;7.17;;;;;;;1.97;90.14;100422.09;5066477;28;20195;-66
2022/01/16 01:32:09;;;;;;;8.00;7.07;;;;;;;1.95;89.95;100420.38;5071236;28;20299;-66
2022/01/16 01:34:37;;;;;;;7.57;6.73;;;;;;;1.94;90.39;100432.16;5071381;28;20200;-66
2022/01/16 01:37:05;;;;;;;8.17;6.97;;;;;;;1.90;90.49;100427.88;5070961;28;20192;-66
2022/01/16 01:39:32;;;;;;;7.93;7.10;;;;;;;1.92;90.32;100433.81;5058813;28;20192;-66
2022/01/16 01:42:07;;;;;;;8.53;7.30;;;;;;;1.98;90.00;100440.66;5064836;28;20661;-65
2022/01/16 01:52:48;;;;;;;8.63;7.00;;;;;;;2.07;88.79;100463.59;5065045;28;20200;-66
2022/01/16 01:55:15;;;;;;;7.40;6.70;;;;;;;2.02;88.83;100463.53;5068629;28;20722;-66
2022/01/16 01:57:42;;;;;;;7.97;6.87;;;;;;;2.05;88.81;100450.09;5070811;28;20206;-66
2022/01/16 02:00:09;;;;;;;6.83;6.20;;;;;;;2.10;88.33;100464.53;5062875;28;20205;-66
2022/01/16 02:02:48;;;;;;;7.17;6.57;;;;;;;2.09;88.20;100460.31;5071074;28;20203;-66
2022/01/16 02:05:15;;;;;;;6.67;6.07;;;;;;;2.02;88.05;100453.41;5062507;28;20192;-66
2022/01/16 02:07:42;;;;;;;8.57;6.63;;;;;;;1.98;87.99;100450.78;5064200;28;20216;-66
2022/01/16 02:10:11;;;;;;;9.50;7.40;;;;;;;2.15;87.76;100474.75;5066017;28;20671;-65
2022/01/16 02:12:42;;;;;;;7.10;6.50;;;;;;;2.10;87.40;100461.16;5069679;28;20741;-66
2022/01/16 02:15:33;;;;;;;7.93;6.37;;;;;;;2.08;87.13;100478.81;5069009;28;20200;-66
2022/01/16 02:29:30;;;;;;;7.70;6.27;;;;;;;1.90;87.60;100478.44;5059300;28;20221;-66
2022/01/16 02:32:00;;;;;;;6.10;5.47;;;;;;;1.89;87.58;100450.59;5056514;28;20558;-66
2022/01/16 02:34:32;;;;;;;9.47;6.40;;;;;;;1.92;87.44;100441.38;5063409;28;20196;-66
2022/01/16 02:37:02;;;;;;;7.27;6.50;;;;;;;1.89;87.04;100435.41;5070595;28;20191;-65
2022/01/16 02:39:34;;;;;;;9.33;5.17;;;;;;;1.98;87.10;100450.78;5070216;28;20280;-65
2022/01/16 02:42:02;;;;;;;7.37;6.63;;;;;;;1.80;87.54;100420.91;5068840;28;20196;-65
2022/01/16 02:44:34;;;;;;;6.23;5.67;;;;;;;1.89;87.38;100446.38;5067318;28;20700;-65
2022/01/16 02:47:02;;;;;;;6.10;5.70;;;;;;;1.89;87.17;100446.38;5064840;28;20216;-65
2022/01/16 02:49:30;;;;;;;8.83;6.53;;;;;;;1.93;87.74;100440.56;5066557;28;20200;-65
2022/01/16 02:52:02;;;;;;;6.83;6.20;;;;;;;1.88;87.82;100443.81;5062070;28;20207;-65
2022/01/16 02:54:35;;;;;;;9.00;6.67;;;;;;;1.86;87.80;100441.25;5065471;28;20203;-66
2022/01/16 02:57:02;;;;;;;6.70;6.03;;;;;;;1.76;88.05;100434.31;5065335;28;20298;-65
2022/01/16 02:59:29;;;;;;;7.57;6.97;;;;;;;1.74;88.43;100441.00;5066788;28;20262;-65
2022/01/16 03:01:56;;;;;;;9.00;7.57;;;;;;;1.69;88.43;100437.50;5060210;28;20261;-64
2022/01/16 03:04:23;;;;;;;8.40;7.33;;;;;;;1.57;88.47;100419.56;5058029;28;20239;-64
2022/01/16 03:06:49;;;;;;;7.80;7.10;;;;;;;1.61;88.87;100433.97;5055740;28;20594;-65
2022/01/16 03:09:18;;;;;;;12.77;8.17;;;;;;;1.57;89.16;100432.19;5063273;28;20220;-64
2022/01/16 03:11:48;;;;;;;8.67;7.50;;;;;;;1.53;89.45;100435.47;5064050;28;20204;-64
2022/01/16 03:14:17;;;;;;;9.40;6.97;;;;;;;1.53;89.87;100432.94;5060938;28;20332;-65
2022/01/16 03:16:48;;;;;;;7.83;7.03;;;;;;;1.45;90.06;100436.97;5064188;28;20669;-65
2022/01/16 03:22:02;;;;;;;8.17;7.30;;;;;;;1.40;90.14;100418.31;5060727;28;20333;-65
2022/01/16 03:24:32;;;;;;;8.50;6.50;;;;;;;1.44;90.12;100435.25;5069755;28;20197;-65
2022/01/16 03:27:02;;;;;;;8.13;7.17;;;;;;;1.46;90.83;100446.25;5069486;28;20687;-65
2022/01/16 03:29:30;;;;;;;8.50;7.30;;;;;;;1.37;90.57;100453.63;5069762;28;20223;-65
2022/01/16 03:31:59;;;;;;;7.60;6.57;;;;;;;1.30;90.79;100451.75;5068033;28;20222;-65
2022/01/16 03:34:26;;;;;;;7.53;6.87;;;;;;;1.19;90.98;100438.03;5064978;28;20591;-65
2022/01/16 03:36:53;;;;;;;7.43;6.60;;;;;;;1.33;91.23;100454.34;5065008;28;20607;-66
2022/01/16 03:39:21;;;;;;;9.93;7.37;;;;;;;1.33;90.97;100454.34;5059333;28;20204;-65
2022/01/16 03:41:47;;;;;;;7.83;6.97;;;;;;;1.37;90.77;100462.06;5050920;28;20204;-65
2022/01/16 03:44:16;;;;;;;7.27;6.63;;;;;;;1.37;90.14;100464.59;5051923;28;20203;-66
2022/01/16 03:46:44;;;;;;;11.17;6.47;;;;;;;1.39;89.79;100459.56;5065375;28;20203;-65
2022/01/16 03:49:13;;;;;;;7.30;6.50;;;;;;;1.43;89.90;100468.91;5073395;28;20212;-65
2022/01/16 03:51:41;;;;;;;7.33;6.63;;;;;;;1.41;89.40;100470.56;5069538;28;20277;-65
2022/01/16 03:54:11;;;;;;;7.07;6.37;;;;;;;1.32;88.88;100460.25;5064402;28;20208;-66
2022/01/16 03:56:39;;;;;;;7.53;6.23;;;;;;;1.43;88.53;100486.59;5067077;28;20257;-65
2022/01/16 03:59:06;;;;;;;7.80;6.50;;;;;;;1.33;88.89;100477.09;5070529;28;20204;-65
2022/01/16 04:01:35;;;;;;;7.63;6.83;;;;;;;1.37;89.33;100487.31;5057645;28;20545;-65
2022/01/16 04:04:02;;;;;;;7.80;6.40;;;;;;;1.33;89.11;100494.78;5057986;28;20563;-65
2022/01/16 04:06:29;;;;;;;6.37;5.60;;;;;;;1.27;89.36;100482.00;5072806;28;20196;-65
2022/01/16 04:08:56;;;;;;;6.30;5.80;;;;;;;1.19;89.80;100478.44;5068310;28;20278;-65
2022/01/16 04:11:25;;;;;;;6.97;6.27;;;;;;;1.14;89.76;100478.31;5071182;28;20299;-65
2022/01/16 04:13:54;;;;;;;8.83;6.43;;;;;;;1.13;90.15;100480.81;5070899;28;20607;-65
2022/01/16 04:16:22;;;;;;;11.70;6.77;;;;;;;1.14;89.43;100490.09;5062892;28;20853;-65
2022/01/16 04:18:51;;;;;;;5.67;5.20;;;;;;;1.10;89.26;100488.31;5062097;28;20254;-65
2022/01/16 04:21:19;;;;;;;9.00;6.10;;;;;;;1.10;89.91;100490.84;5064606;28;20665;-65
2022/01/16 04:23:46;;;;;;;5.73;5.33;;;;;;;1.07;90.08;100488.25;5053148;28;20486;-65
2022/01/16 04:26:13;;;;;;;5.80;5.17;;;;;;;0.86;89.67;100455.72;5053263;28;20196;-65
2022/01/16 04:28:41;;;;;;;9.57;6.63;;;;;;;1.04;89.57;100494.91;5061735;28;20212;-65
2022/01/16 04:31:07;;;;;;;6.27;5.77;;;;;;;1.05;90.17;100501.69;5069713;28;20258;-64
2022/01/16 04:33:34;;;;;;;6.90;5.87;;;;;;;1.01;89.98;100499.03;5072226;28;20220;-65
2022/01/16 04:36:03;;;;;;;6.23;5.53;;;;;;;1.04;89.49;100494.91;5070949;28;20572;-65
2022/01/16 04:38:30;;;;;;;6.73;5.90;;;;;;;1.02;89.51;100495.69;5063848;28;20668;-65
2022/01/16 04:43:51;;;;;;;7.13;6.43;;;;;;;1.07;89.40;100499.19;5028080;28;20201;-65
2022/01/16 04:46:19;;;;;;;5.90;5.50;;;;;;;1.07;89.22;100488.25;5066372;28;20204;-65
2022/01/16 04:48:46;;;;;;;5.40;5.00;;;;;;;1.02;89.09;100494.03;5062917;28;20217;-65
2022/01/16 04:51:15;;;;;;;6.33;5.83;;;;;;;1.00;89.77;100508.25;5063778;28;20200;-65
2022/01/16 04:53:42;;;;;;;8.07;7.30;;;;;;;0.97;89.58;100495.56;5072065;28;20192;-65
2022/01/16 04:56:09;;;;;;;7.33;6.83;;;;;;;0.96;89.90;100491.34;5071876;28;20200;-66
2022/01/16 04:58:37;;;;;;;6.63;5.97;;;;;;;0.96;89.27;100487.97;5060892;28;20560;-65
2022/01/16 05:01:05;;;;;;;8.43;6.70;;;;;;;0.96;89.50;100496.41;5066737;28;20249;-66
2022/01/16 05:03:33;;;;;;;7.90;7.10;;;;;;;0.94;89.78;100503.06;5063795;28;20206;-65
2022/01/16 05:06:00;;;;;;;6.43;5.80;;;;;;;0.86;89.70;100474.25;5068484;28;20204;-66
2022/01/16 05:08:29;;;;;;;6.53;5.67;;;;;;;0.95;89.61;100498.88;5058943;28;20684;-64
2022/01/16 05:10:57;;;;;;;6.70;5.90;;;;;;;0.93;89.45;100496.31;5071965;28;20329;-65
2022/01/16 05:13:31;;;;;;;9.47;6.50;;;;;;;0.91;89.28;100497.06;5062638;28;20197;-65
2022/01/16 05:18:43;;;;;;;9.03;8.13;;;;;;;0.92;89.36;100499.66;5057647;28;20246;-65
2022/01/16 05:21:12;;;;;;;6.83;6.23;;;;;;;0.87;89.79;100486.03;5070170;28;20284;-66
2022/01/16 05:23:42;;;;;;;7.73;7.00;;;;;;;0.92;90.23;100499.66;5071541;28;20684;-66
2022/01/16 05:26:09;;;;;;;7.73;6.90;;;;;;;0.96;90.23;100498.94;5071328;28;20192;-66
2022/01/16 05:28:36;;;;;;;6.63;6.03;;;;;;;0.93;90.50;100491.28;5068732;28;20266;-65
2022/01/16 05:31:04;;;;;;;7.00;6.27;;;;;;;0.92;91.05;100493.75;5067165;28;20204;-65
2022/01/16 05:33:31;;;;;;;7.17;6.43;;;;;;;0.91;91.03;100502.13;5064080;28;20307;-65
2022/01/16 05:35:58;;;;;;;6.27;5.73;;;;;;;0.92;91.37;100504.72;5068477;28;20202;-65
2022/01/16 05:38:25;;;;;;;5.83;5.50;;;;;;;0.84;91.53;100506.16;5065327;28;20204;-65
2022/01/16 05:40:54;;;;;;;7.37;6.23;;;;;;;0.89;91.26;100509.69;5057437;28;20204;-65
2022/01/16 05:43:20;;;;;;;7.43;6.73;;;;;;;0.90;91.61;100515.59;5063048;28;20215;-65
2022/01/16 05:45:47;;;;;;;6.57;5.83;;;;;;;0.86;91.76;100509.59;5064160;28;20274;-66
2022/01/16 05:48:14;;;;;;;6.20;5.60;;;;;;;0.92;91.63;100519.84;5067117;28;20216;-65
2022/01/16 05:50:41;;;;;;;7.77;6.70;;;;;;;0.94;91.63;100518.22;5067948;28;20196;-64
2022/01/16 05:53:08;;;;;;;8.10;6.63;;;;;;;0.91;91.29;100524.84;5069824;28;20253;-64
2022/01/16 05:55:37;;;;;;;6.93;6.33;;;;;;;0.89;91.37;100537.44;5063773;28;20197;-65
2022/01/16 05:58:06;;;;;;;6.80;6.20;;;;;;;0.89;91.81;100532.41;5069289;28;20664;-65
2022/01/16 06:00:34;;;;;;;7.37;6.67;;;;;;;0.90;91.61;100539.16;5064466;28;20228;-65
2022/01/16 06:03:01;;;;;;;6.00;5.60;;;;;;;0.90;91.91;100539.16;5067502;28;20294;-65
2022/01/16 06:05:28;;;;;;;7.17;6.03;;;;;;;0.91;92.00;100542.50;5069530;28;20279;-65
2022/01/16 06:07:58;;;;;;;7.37;5.83;;;;;;;0.93;92.07;100540.91;5070775;28;20204;-65
2022/01/16 06:10:25;;;;;;;6.83;6.17;;;;;;;0.98;92.02;100545.25;5069775;28;20680;-64
2022/01/16 06:12:52;;;;;;;8.30;6.47;;;;;;;1.01;92.21;100545.34;5071207;28;20192;-65
2022/01/16 06:15:21;;;;;;;11.43;6.80;;;;;;;1.01;92.13;100545.34;5066363;28;20287;-65
2022/01/16 06:17:48;;;;;;;7.50;5.57;;;;;;;1.07;92.55;100558.94;5064947;28;20212;-65
2022/01/16 06:20:15;;;;;;;6.77;6.20;;;;;;;1.11;92.07;100560.72;5069682;28;20197;-65
2022/01/16 06:22:42;;;;;;;17.90;7.13;;;;;;;1.16;92.20;100559.19;5071144;28;20541;-64
2022/01/16 06:25:10;;;;;;;7.90;6.67;;;;;;;1.20;91.87;100581.16;5070140;28;20775;-65
2022/01/16 06:27:37;;;;;;;6.90;6.13;;;;;;;1.07;92.24;100548.84;5070664;28;20631;-65
2022/01/16 06:30:05;;;;;;;7.33;6.60;;;;;;;1.21;92.45;100572.78;5070023;28;20216;-65
2022/01/16 06:32:34;;;;;;;8.17;6.83;;;;;;;1.24;91.86;100572.84;5064323;28;20207;-65
2022/01/16 06:35:00;;;;;;;9.40;7.80;;;;;;;1.28;92.23;100589.81;5066184;28;20204;-65
2022/01/16 06:37:27;;;;;;;8.63;7.77;;;;;;;1.32;92.10;100596.66;5064138;28;20200;-65
2022/01/16 06:39:54;;;;;;;9.30;8.20;;;;;;;1.36;91.86;100604.34;5063837;28;20569;-65
2022/01/16 06:42:21;;;;;;;9.23;7.83;;;;;;;1.39;91.78;100603.56;5057414;28;20591;-65
2022/01/16 06:44:48;;;;;;;8.47;7.63;;;;;;;1.40;92.21;100615.38;5064548;28;20233;-65
2022/01/16 06:47:15;;;;;;;12.67;9.03;;;;;;;1.36;92.17;100604.34;5061537;28;20278;-65
2022/01/16 06:49:44;;;;;;;19.20;8.73;;;;;;;1.39;92.22;100614.50;5055512;28;20216;-65
2022/01/16 06:52:10;;;;;;;11.57;8.03;;;;;;;1.39;92.74;100601.06;5061707;28;20197;-65
2022/01/16 06:54:38;;;;;;;9.70;7.97;;;;;;;1.36;92.99;100608.53;5064769;28;20215;-65
2022/01/16 06:57:05;;;;;;;12.20;7.97;;;;;;;1.39;93.11;100606.94;5060900;28;20587;-64
2022/01/16 06:59:34;;;;;;;8.17;7.53;;;;;;;1.35;93.60;100604.31;5065238;28;20200;-65
2022/01/16 07:02:01;;;;;;;9.97;8.73;;;;;;;1.29;94.20;100611.72;5058705;28;20204;-65
2022/01/16 07:04:28;;;;;;;10.73;8.60;;;;;;;1.30;94.57;100619.34;5064307;28;20690;-64
2022/01/16 07:06:56;;;;;;;9.90;7.80;;;;;;;1.33;95.04;100621.06;5065339;28;20222;-65
2022/01/16 07:09:23;;;;;;;10.90;8.90;;;;;;;1.32;95.33;100626.97;5055133;28;20238;-65
2022/01/16 07:11:50;;;;;;;10.23;8.37;;;;;;;1.29;95.39;100631.94;5065585;28;20203;-66
2022/01/16 07:14:16;;;;;;;10.20;8.00;;;;;;;1.31;95.55;100636.22;5061764;28;20206;-65
2022/01/16 07:16:43;;;;;;;14.23;8.87;;;;;;;1.35;95.90;100644.72;5061537;28;20196;-65
2022/01/16 07:19:10;;;;;;;8.83;7.57;;;;;;;1.38;95.85;100647.34;5062222;28;20199;-65
2022/01/16 07:21:37;;;;;;;18.07;9.43;;;;;;;1.41;95.92;100642.34;5065554;28;20211;-64
2022/01/16 07:24:06;;;;;;;10.43;8.67;;;;;;;1.45;95.47;100641.63;5065376;28;20261;-65
2022/01/16 07:26:32;;;;;;;10.23;8.50;;;;;;;1.38;95.05;100620.41;5055462;28;20557;-65
2022/01/16 07:28:59;;;;;;;14.67;9.73;;;;;;;1.53;95.06;100642.66;5068395;28;20212;-65
2022/01/16 07:31:26;;;;;;;15.43;9.43;;;;;;;1.51;94.77;100640.13;5055830;28;20203;-65
2022/01/16 07:33:55;;;;;;;10.77;9.07;;;;;;;1.54;95.21;100650.31;5064310;28;20215;-65
2022/01/16 07:36:24;;;;;;;11.87;9.70;;;;;;;1.58;95.91;100641.13;5055533;28;20924;-65
2022/01/16 07:38:51;;;;;;;12.73;10.03;;;;;;;1.62;95.73;100642.91;5063040;28;20219;-65
2022/01/16 07:41:19;;;;;;;16.77;9.70;;;;;;;1.65;96.12;100642.97;5062864;28;20212;-65
2022/01/16 07:43:46;;;;;;;15.40;10.30;;;;;;;1.70;96.65;100656.59;5064543;28;20553;-64
2022/01/16 07:46:13;;;;;;;14.07;9.93;;;;;;;1.75;96.74;100652.50;5060045;28;20215;-65
2022/01/16 07:48:39;;;;;;;11.03;9.30;;;;;;;1.82;96.77;100645.94;5060774;28;20227;-65
2022/01/16 07:51:06;;;;;;;12.00;9.63;;;;;;;1.89;96.51;100648.66;5056186;28;20208;-66
2022/01/16 07:53:34;;;;;;;12.13;10.07;;;;;;;1.89;96.92;100651.19;5061865;28;20203;-65
2022/01/16 07:56:01;;;;;;;13.57;9.83;;;;;;;1.89;96.91;100645.25;5057017;28;20243;-66
2022/01/16 07:58:29;;;;;;;10.80;9.13;;;;;;;2.02;96.69;100650.66;5062595;28;20679;-66
2022/01/16 08:00:56;;;;;;;11.80;9.57;;;;;;;2.16;96.30;100657.72;5053903;28;20207;-65
2022/01/16 08:03:23;;;;;;;15.07;9.17;;;;;;;2.22;96.54;100650.28;5061325;28;20196;-67
2022/01/16 08:05:50;;;;;;;12.97;9.67;;;;;;;2.26;95.84;100647.00;5057704;28;20301;-67
2022/01/16 08:08:17;;;;;;;13.50;9.93;;;;;;;2.48;96.75;100652.59;5061525;28;20931;-65
2022/01/16 08:10:44;;;;;;;12.57;9.70;;;;;;;2.56;97.28;100645.13;5058492;28;20204;-67
2022/01/16 08:13:11;;;;;;;10.77;8.97;;;;;;;2.66;96.67;100642.00;5064037;28;20233;-64
2022/01/16 08:15:43;;;;;;;12.43;10.40;;;;;;;2.72;94.47;100621.88;5063239;28;20204;-64
2022/01/16 08:18:10;;;;;;;21.00;10.07;;;;;;;2.88;93.91;100628.94;5064602;28;20192;-72
2022/01/16 08:20:37;;;;;;;14.03;9.67;;;;;;;2.91;94.64;100618.06;5059956;28;20206;-70
2022/01/16 08:23:04;;;;;;;11.97;9.77;;;;;;;3.11;94.47;100631.94;5061505;28;20203;-72
2022/01/16 08:25:31;;;;;;;15.57;10.20;;;;;;;3.23;94.71;100636.41;5067197;28;20220;-71
2022/01/16 08:27:58;;;;;;;12.23;10.00;;;;;;;3.32;95.55;100642.50;5063517;28;20230;-71
2022/01/16 08:30:25;;;;;;;12.47;9.07;;;;;;;3.39;93.47;100641.78;5058863;28;20230;-71
2022/01/16 08:32:53;;;;;;;10.73;9.30;;;;;;;3.47;92.97;100636.84;5064766;28;20200;-71
2022/01/16 08:35:20;;;;;;;10.90;9.70;;;;;;;3.58;92.14;100625.22;5062056;28;20218;-70
2022/01/16 08:37:48;;;;;;;14.23;8.90;;;;;;;3.66;92.49;100623.66;5066806;28;20664;-71
2022/01/16 08:40:15;;;;;;;10.90;8.03;;;;;;;3.76;91.82;100630.59;5063743;28;20579;-71
2022/01/16 08:42:42;;;;;;;8.33;7.70;;;;;;;3.82;91.17;100625.63;5062825;28;20204;-71
2022/01/16 08:45:10;;;;;;;12.13;8.77;;;;;;;3.90;91.43;100628.28;5066639;28;20223;-71
2022/01/16 08:47:37;;;;;;;9.43;8.40;;;;;;;3.96;89.81;100619.09;5064261;28;20249;-68
2022/01/16 08:50:07;;;;;;;9.63;8.73;;;;;;;4.09;89.77;100618.47;5062275;28;20244;-69
2022/01/16 08:52:34;;;;;;;9.70;8.70;;;;;;;4.17;87.91;100634.66;5060793;28;20204;-63
2022/01/16 08:55:02;;;;;;;9.97;8.93;;;;;;;4.15;86.24;100610.09;5063802;28;20669;-64
2022/01/16 08:57:29;;;;;;;10.47;8.47;;;;;;;4.21;86.27;100612.72;5059004;28;20196;-63
2022/01/16 08:59:55;;;;;;;11.93;8.73;;;;;;;4.46;86.43;100616.47;5061243;28;20261;-63
2022/01/16 09:02:22;;;;;;;12.80;8.30;;;;;;;4.51;86.37;100609.75;5064665;28;20197;-62
2022/01/16 09:04:49;;;;;;;9.57;8.03;;;;;;;4.60;85.79;100625.09;5061337;28;20484;-63
2022/01/16 09:07:17;;;;;;;8.87;7.93;;;;;;;4.68;85.39;100623.53;5066182;28;20209;-70
2022/01/16 09:09:44;;;;;;;10.33;8.67;;;;;;;4.78;85.60;100617.75;5061107;28;20224;-71
2022/01/16 09:12:11;;;;;;;9.10;8.30;;;;;;;4.85;84.68;100616.97;5069287;28;20208;-69
2022/01/16 09:14:38;;;;;;;10.07;8.97;;;;;;;4.95;85.72;100610.31;5062893;28;20196;-68
2022/01/16 09:17:05;;;;;;;9.23;8.23;;;;;;;4.95;83.13;100598.47;5059359;28;20203;-69
2022/01/16 09:19:32;;;;;;;10.17;9.20;;;;;;;5.06;82.57;100607.06;5064728;28;20201;-69
2022/01/16 09:21:59;;;;;;;9.37;8.50;;;;;;;5.15;82.89;100598.69;5067287;28;21554;-69
2022/01/16 09:24:27;;;;;;;10.63;8.53;;;;;;;5.21;82.79;100596.19;5054749;28;20211;-69
2022/01/16 09:26:56;;;;;;;13.93;10.00;;;;;;;5.29;82.80;100599.69;5061590;28;20212;-69
2022/01/16 09:29:23;;;;;;;9.53;7.67;;;;;;;5.32;80.51;100593.78;5067738;28;20246;-69
2022/01/16 09:31:50;;;;;;;8.00;7.20;;;;;;;5.40;79.96;100592.16;5058102;28;20204;-68
2022/01/16 09:34:17;;;;;;;8.07;7.27;;;;;;;5.41;78.33;100594.72;5065709;28;20206;-69
2022/01/16 09:36:44;;;;;;;7.77;7.10;;;;;;;5.43;77.89;100592.19;5058344;28;20246;-70
2022/01/16 09:39:11;;;;;;;7.63;7.00;;;;;;;5.52;78.95;100588.06;5057277;28;20546;-69
2022/01/16 09:41:41;;;;;;;7.67;6.97;;;;;;;5.64;76.93;100593.25;5068371;28;20203;-69
2022/01/16 09:44:08;;;;;;;7.00;6.40;;;;;;;5.62;76.14;100573.72;5068172;28;20269;-69
2022/01/16 09:46:36;;;;;;;8.23;7.43;;;;;;;5.80;77.79;100581.50;5065947;28;20676;-69
2022/01/16 09:49:04;;;;;;;6.63;6.23;;;;;;;5.81;75.78;100585.75;5064704;28;20196;-69
2022/01/16 09:51:32;;;;;;;8.27;6.00;;;;;;;5.81;76.20;100550.13;5064765;28;20200;-69
2022/01/16 09:53:59;;;;;;;8.70;6.50;;;;;;;5.99;75.88;100569.78;5071210;28;20192;-69
2022/01/16 09:56:26;;;;;;;6.70;6.03;;;;;;;6.11;73.82;100575.81;5067615;28;20204;-69
2022/01/16 09:58:54;;;;;;;6.30;5.70;;;;;;;6.08;73.19;100574.94;5066660;28;20200;-70
2022/01/16 10:01:21;;;;;;;8.07;6.83;;;;;;;6.13;73.69;100563.97;5068551;28;20196;-69
2022/01/16 10:03:48;;;;;;;5.93;5.43;;;;;;;6.10;72.41;100555.44;5070144;28;20222;-69
2022/01/16 10:06:20;;;;;;;6.87;6.27;;;;;;;6.11;73.04;100560.53;5069015;28;20285;-70
2022/01/16 10:08:49;;;;;;;6.33;5.83;;;;;;;6.16;73.93;100556.34;5061488;28;20224;-70
2022/01/16 10:11:29;;;;;;;8.47;5.57;;;;;;;6.23;73.30;100555.53;5062979;28;20216;-70
2022/01/16 10:14:01;;;;;;;7.27;6.37;;;;;;;6.32;73.19;100555.59;5070157;28;20629;-70
2022/01/16 10:16:30;;;;;;;6.83;6.33;;;;;;;6.29;71.83;100550.47;5069253;28;20637;-69
2022/01/16 10:18:57;;;;;;;7.90;7.20;;;;;;;6.36;72.33;100560.69;5054482;28;20204;-70
2022/01/16 10:21:36;;;;;;;6.53;6.03;;;;;;;6.44;72.81;100556.47;5054855;28;20192;-69
2022/01/16 10:24:21;;;;;;;6.17;5.70;;;;;;;6.47;71.92;100536.97;5064885;28;20719;-70
2022/01/16 10:26:51;;;;;;;6.50;6.00;;;;;;;6.56;72.67;100544.66;5051544;28;20197;-70
2022/01/16 10:29:21;;;;;;;6.13;5.53;;;;;;;6.54;71.35;100542.94;5061780;28;20671;-69
2022/01/16 10:31:50;;;;;;;6.30;5.80;;;;;;;6.65;74.27;100533.66;5058468;28;20197;-70
2022/01/16 10:34:26;;;;;;;5.67;5.17;;;;;;;6.64;71.66;100531.94;5060801;28;20285;-69
2022/01/16 10:36:54;;;;;;;6.10;5.70;;;;;;;6.78;74.16;100525.22;5057428;28;20204;-70
2022/01/16 10:39:20;;;;;;;7.27;6.57;;;;;;;6.84;72.00;100520.13;5061840;28;20204;-70
2022/01/16 10:42:16;;;;;;;6.77;6.27;;;;;;;6.90;71.49;100520.13;5053981;28;20197;-70
2022/01/16 10:44:45;;;;;;;6.43;5.93;;;;;;;6.96;70.07;100511.66;5061590;28;20238;-70
2022/01/16 10:47:27;;;;;;;6.73;6.20;;;;;;;6.97;71.32;100519.31;5063743;28;20196;-70
2022/01/16 10:50:07;;;;;;;6.40;5.67;;;;;;;7.02;70.37;100515.06;5061248;28;20213;-69
2022/01/16 10:52:45;;;;;;;6.03;5.63;;;;;;;7.06;70.95;100504.03;5060585;28;20196;-69
2022/01/16 10:55:13;;;;;;;6.83;6.10;;;;;;;7.11;70.18;100506.59;5070151;28;20202;-70
2022/01/16 10:57:40;;;;;;;6.13;5.67;;;;;;;7.21;70.52;100496.38;5066879;28;20205;-70
2022/01/16 11:00:12;;;;;;;7.60;6.67;;;;;;;7.31;71.15;100477.69;5060887;28;20291;-70
2022/01/16 11:02:40;;;;;;;6.03;5.53;;;;;;;7.30;70.12;100485.38;5060927;28;20292;-70
2022/01/16 11:05:12;;;;;;;9.43;6.37;;;;;;;7.31;70.10;100487.03;5062792;28;20665;-70
2022/01/16 11:07:39;;;;;;;11.97;5.77;;;;;;;7.38;69.65;100484.50;5059283;28;20196;-70
2022/01/16 11:10:26;;;;;;;6.03;5.63;;;;;;;7.46;70.01;100492.16;5057807;28;20220;-69
2022/01/16 11:12:53;;;;;;;5.90;5.50;;;;;;;7.52;69.19;100491.31;5054673;28;20200;-69
2022/01/16 11:15:25;;;;;;;6.33;5.90;;;;;;;7.60;68.66;100497.25;5060016;28;20643;-71
2022/01/16 11:17:53;;;;;;;7.13;6.50;;;;;;;7.67;69.99;100488.72;5064768;28;20587;-69
2022/01/16 11:20:27;;;;;;;5.80;5.40;;;;;;;7.67;67.77;100470.88;5056334;28;20208;-72
2022/01/16 11:23:14;;;;;;;5.90;5.50;;;;;;;7.74;67.05;100482.78;5063806;28;20738;-69
2022/01/16 11:25:44;;;;;;;5.87;5.23;;;;;;;7.74;68.56;100482.78;5065844;28;20585;-71
2022/01/16 11:28:13;;;;;;;5.60;5.10;;;;;;;7.82;67.07;100475.94;5064769;28;20204;-73
2022/01/16 11:30:44;;;;;;;6.40;5.80;;;;;;;7.76;67.44;100473.41;5060191;28;20212;-74
2022/01/16 11:33:13;;;;;;;5.83;5.43;;;;;;;7.76;66.95;100470.84;5068197;28;20207;-73
2022/01/16 11:35:44;;;;;;;7.07;6.17;;;;;;;7.78;66.33;100479.38;5062504;28;20641;-73
2022/01/16 11:38:12;;;;;;;6.43;5.97;;;;;;;7.89;67.36;100467.41;5064111;28;20214;-73
2022/01/16 11:40:45;;;;;;;5.83;5.43;;;;;;;7.89;67.14;100458.06;5062580;28;20199;-73
2022/01/16 11:43:16;;;;;;;7.07;6.47;;;;;;;7.94;66.81;100450.41;5058584;28;20205;-73
2022/01/16 11:46:06;;;;;;;6.63;6.13;;;;;;;8.02;67.21;100463.13;5062554;28;20211;-73
2022/01/16 11:48:50;;;;;;;6.10;5.60;;;;;;;8.02;64.84;100456.31;5066003;28;20210;-73
2022/01/16 11:51:52;;;;;;;8.80;7.67;;;;;;;7.99;66.09;100456.34;5065809;28;20310;-72
2022/01/16 11:54:27;;;;;;;6.50;6.00;;;;;;;7.97;64.16;100447.84;5059932;28;20215;-73
2022/01/16 11:57:04;;;;;;;5.57;5.17;;;;;;;7.99;63.62;100438.47;5063038;28;20211;-73
2022/01/16 11:59:39;;;;;;;6.40;5.80;;;;;;;8.13;64.23;100441.81;5061338;28;20287;-73
2022/01/16 12:02:19;;;;;;;6.43;5.90;;;;;;;8.11;64.42;100451.19;5063761;28;20202;-73
2022/01/16 12:04:55;;;;;;;10.10;5.73;;;;;;;8.19;64.57;100441.81;5057475;28;20253;-73
2022/01/16 12:07:53;;;;;;;4.87;4.57;;;;;;;8.30;64.57;100436.69;5055966;28;20262;-73
2022/01/16 12:10:55;;;;;;;6.03;5.63;;;;;;;8.25;63.24;100421.34;5029993;28;20227;-72